sensor_id;sensor_type;location;lat;lon;timestamp;P1;durP1;ratioP1;P2;durP2;ratioP2
51578;SDS011;47998;53.242;6.386;2024-01-30T00:01:58;46.97;;;29.55;;
51578;SDS011;47998;53.242;6.386;2024-01-30T00:04:23;41.25;;;27.40;;
51578;SDS011;47998;53.242;6.386;2024-01-30T00:06:50;45.20;;;29.65;;
51578;SDS011;47998;53.242;6.386;2024-01-30T00:09:18;46.90;;;30.27;;
51578;SDS011;47998;53.242;6.386;2024-01-30T00:11:43;49.10;;;30.27;;
51578;SDS011;47998;53.242;6.386;2024-01-30T00:14:09;46.67;;;30.27;;
51578;SDS011;47998;53.242;6.386;2024-01-30T00:16:35;43.45;;;30.00;;
51578;SDS011;47998;53.242;6.386;2024-01-30T00:19:00;44.88;;;31.63;;
51578;SDS011;47998;53.242;6.386;2024-01-30T00:21:27;46.88;;;30.95;;
51578;SDS011;47998;53.242;6.386;2024-01-30T00:23:53;51.10;;;31.23;;
51578;SDS011;47998;53.242;6.386;2024-01-30T00:26:18;50.13;;;32.30;;
51578;SDS011;47998;53.242;6.386;2024-01-30T00:28:44;51.47;;;33.13;;
51578;SDS011;47998;53.242;6.386;2024-01-30T00:31:10;56.35;;;34.60;;
51578;SDS011;47998;53.242;6.386;2024-01-30T00:33:37;51.08;;;31.58;;
51578;SDS011;47998;53.242;6.386;2024-01-30T00:36:04;51.38;;;32.72;;
51578;SDS011;47998;53.242;6.386;2024-01-30T00:38:31;49.25;;;32.35;;
51578;SDS011;47998;53.242;6.386;2024-01-30T00:40:57;58.03;;;35.22;;
51578;SDS011;47998;53.242;6.386;2024-01-30T00:43:23;51.22;;;32.33;;
51578;SDS011;47998;53.242;6.386;2024-01-30T00:45:50;52.30;;;34.03;;
51578;SDS011;47998;53.242;6.386;2024-01-30T00:48:17;57.53;;;36.85;;
51578;SDS011;47998;53.242;6.386;2024-01-30T00:50:43;66.70;;;37.60;;
51578;SDS011;47998;53.242;6.386;2024-01-30T00:53:09;59.60;;;35.28;;
51578;SDS011;47998;53.242;6.386;2024-01-30T00:55:35;62.53;;;37.80;;
51578;SDS011;47998;53.242;6.386;2024-01-30T00:58:00;65.28;;;38.05;;
51578;SDS011;47998;53.242;6.386;2024-01-30T01:00:26;59.42;;;35.90;;
51578;SDS011;47998;53.242;6.386;2024-01-30T01:02:54;61.80;;;37.78;;
51578;SDS011;47998;53.242;6.386;2024-01-30T01:05:20;66.65;;;38.28;;
51578;SDS011;47998;53.242;6.386;2024-01-30T01:07:46;62.55;;;39.10;;
51578;SDS011;47998;53.242;6.386;2024-01-30T01:10:16;63.58;;;38.63;;
51578;SDS011;47998;53.242;6.386;2024-01-30T01:12:42;62.40;;;38.97;;
51578;SDS011;47998;53.242;6.386;2024-01-30T01:15:08;65.90;;;39.40;;
51578;SDS011;47998;53.242;6.386;2024-01-30T01:17:37;66.35;;;37.75;;
51578;SDS011;47998;53.242;6.386;2024-01-30T01:20:04;58.20;;;36.28;;
51578;SDS011;47998;53.242;6.386;2024-01-30T01:22:31;61.88;;;37.17;;
51578;SDS011;47998;53.242;6.386;2024-01-30T01:25:00;58.33;;;36.17;;
51578;SDS011;47998;53.242;6.386;2024-01-30T01:27:26;67.70;;;38.92;;
51578;SDS011;47998;53.242;6.386;2024-01-30T01:29:52;62.03;;;38.03;;
51578;SDS011;47998;53.242;6.386;2024-01-30T01:32:18;64.85;;;36.45;;
51578;SDS011;47998;53.242;6.386;2024-01-30T01:34:44;71.68;;;39.22;;
51578;SDS011;47998;53.242;6.386;2024-01-30T01:37:10;71.15;;;39.70;;
51578;SDS011;47998;53.242;6.386;2024-01-30T01:39:36;65.53;;;38.92;;
51578;SDS011;47998;53.242;6.386;2024-01-30T01:42:01;63.05;;;38.33;;
51578;SDS011;47998;53.242;6.386;2024-01-30T01:44:27;70.45;;;39.78;;
51578;SDS011;47998;53.242;6.386;2024-01-30T01:46:54;66.55;;;39.00;;
51578;SDS011;47998;53.242;6.386;2024-01-30T01:49:20;67.53;;;40.42;;
51578;SDS011;47998;53.242;6.386;2024-01-30T01:51:48;69.93;;;40.90;;
51578;SDS011;47998;53.242;6.386;2024-01-30T01:54:14;70.43;;;41.38;;
51578;SDS011;47998;53.242;6.386;2024-01-30T01:56:41;68.22;;;39.47;;
51578;SDS011;47998;53.242;6.386;2024-01-30T01:59:08;65.97;;;39.33;;
51578;SDS011;47998;53.242;6.386;2024-01-30T02:01:36;68.95;;;39.53;;
51578;SDS011;47998;53.242;6.386;2024-01-30T02:04:02;70.35;;;39.88;;
51578;SDS011;47998;53.242;6.386;2024-01-30T02:06:29;70.53;;;39.45;;
51578;SDS011;47998;53.242;6.386;2024-01-30T02:08:54;67.53;;;39.40;;
51578;SDS011;47998;53.242;6.386;2024-01-30T02:11:21;68.85;;;40.60;;
51578;SDS011;47998;53.242;6.386;2024-01-30T02:13:48;65.25;;;39.67;;
51578;SDS011;47998;53.242;6.386;2024-01-30T02:16:14;65.38;;;38.85;;
51578;SDS011;47998;53.242;6.386;2024-01-30T02:18:40;66.28;;;39.38;;
51578;SDS011;47998;53.242;6.386;2024-01-30T02:21:07;66.43;;;40.55;;
51578;SDS011;47998;53.242;6.386;2024-01-30T02:23:33;65.15;;;39.58;;
51578;SDS011;47998;53.242;6.386;2024-01-30T02:25:59;64.72;;;39.30;;
51578;SDS011;47998;53.242;6.386;2024-01-30T02:28:25;66.13;;;41.30;;
51578;SDS011;47998;53.242;6.386;2024-01-30T02:30:52;64.85;;;39.85;;
51578;SDS011;47998;53.242;6.386;2024-01-30T02:33:18;61.78;;;39.55;;
51578;SDS011;47998;53.242;6.386;2024-01-30T02:35:44;63.92;;;39.80;;
51578;SDS011;47998;53.242;6.386;2024-01-30T02:38:10;59.53;;;36.63;;
51578;SDS011;47998;53.242;6.386;2024-01-30T02:40:36;58.70;;;38.17;;
51578;SDS011;47998;53.242;6.386;2024-01-30T02:43:02;63.35;;;37.42;;
51578;SDS011;47998;53.242;6.386;2024-01-30T02:45:28;58.30;;;35.95;;
51578;SDS011;47998;53.242;6.386;2024-01-30T02:47:54;60.75;;;39.10;;
51578;SDS011;47998;53.242;6.386;2024-01-30T02:50:19;57.80;;;37.63;;
51578;SDS011;47998;53.242;6.386;2024-01-30T02:52:45;61.30;;;38.28;;
51578;SDS011;47998;53.242;6.386;2024-01-30T02:55:11;61.33;;;38.05;;
51578;SDS011;47998;53.242;6.386;2024-01-30T02:57:37;59.45;;;37.45;;
51578;SDS011;47998;53.242;6.386;2024-01-30T03:00:04;65.97;;;39.10;;
51578;SDS011;47998;53.242;6.386;2024-01-30T03:02:31;62.40;;;38.28;;
51578;SDS011;47998;53.242;6.386;2024-01-30T03:04:58;66.05;;;37.83;;
51578;SDS011;47998;53.242;6.386;2024-01-30T03:07:24;62.40;;;38.53;;
51578;SDS011;47998;53.242;6.386;2024-01-30T03:09:50;54.35;;;34.63;;
51578;SDS011;47998;53.242;6.386;2024-01-30T03:12:16;53.63;;;34.90;;
51578;SDS011;47998;53.242;6.386;2024-01-30T03:14:42;61.30;;;35.63;;
51578;SDS011;47998;53.242;6.386;2024-01-30T03:17:08;56.83;;;35.70;;
51578;SDS011;47998;53.242;6.386;2024-01-30T03:19:33;54.65;;;35.38;;
51578;SDS011;47998;53.242;6.386;2024-01-30T03:21:59;60.75;;;35.78;;
51578;SDS011;47998;53.242;6.386;2024-01-30T03:24:25;54.60;;;34.72;;
51578;SDS011;47998;53.242;6.386;2024-01-30T03:26:51;61.95;;;35.83;;
51578;SDS011;47998;53.242;6.386;2024-01-30T03:29:17;59.40;;;35.28;;
51578;SDS011;47998;53.242;6.386;2024-01-30T03:31:42;61.70;;;36.92;;
51578;SDS011;47998;53.242;6.386;2024-01-30T03:34:08;64.30;;;37.25;;
51578;SDS011;47998;53.242;6.386;2024-01-30T03:36:34;67.28;;;36.47;;
51578;SDS011;47998;53.242;6.386;2024-01-30T03:39:00;52.97;;;33.95;;
51578;SDS011;47998;53.242;6.386;2024-01-30T03:41:26;58.03;;;36.45;;
51578;SDS011;47998;53.242;6.386;2024-01-30T03:43:51;56.35;;;35.22;;
51578;SDS011;47998;53.242;6.386;2024-01-30T03:46:17;53.90;;;35.15;;
51578;SDS011;47998;53.242;6.386;2024-01-30T03:48:47;54.35;;;34.55;;
51578;SDS011;47998;53.242;6.386;2024-01-30T03:51:13;55.42;;;36.13;;
51578;SDS011;47998;53.242;6.386;2024-01-30T03:53:44;52.17;;;34.45;;
51578;SDS011;47998;53.242;6.386;2024-01-30T03:56:11;54.70;;;34.78;;
51578;SDS011;47998;53.242;6.386;2024-01-30T03:58:38;53.78;;;33.67;;
51578;SDS011;47998;53.242;6.386;2024-01-30T04:01:04;48.33;;;30.40;;
51578;SDS011;47998;53.242;6.386;2024-01-30T04:03:30;49.10;;;31.80;;
51578;SDS011;47998;53.242;6.386;2024-01-30T04:05:55;50.33;;;31.13;;
51578;SDS011;47998;53.242;6.386;2024-01-30T04:08:21;50.67;;;31.67;;
51578;SDS011;47998;53.242;6.386;2024-01-30T04:10:47;49.75;;;31.40;;
51578;SDS011;47998;53.242;6.386;2024-01-30T04:13:13;49.58;;;31.08;;
51578;SDS011;47998;53.242;6.386;2024-01-30T04:15:39;50.50;;;31.95;;
51578;SDS011;47998;53.242;6.386;2024-01-30T04:18:05;53.10;;;34.17;;
51578;SDS011;47998;53.242;6.386;2024-01-30T04:20:31;56.30;;;35.58;;
51578;SDS011;47998;53.242;6.386;2024-01-30T04:22:56;49.35;;;32.22;;
51578;SDS011;47998;53.242;6.386;2024-01-30T04:25:22;47.70;;;32.35;;
51578;SDS011;47998;53.242;6.386;2024-01-30T04:27:48;46.88;;;30.67;;
51578;SDS011;47998;53.242;6.386;2024-01-30T04:30:14;49.28;;;31.08;;
51578;SDS011;47998;53.242;6.386;2024-01-30T04:32:40;46.60;;;31.35;;
51578;SDS011;47998;53.242;6.386;2024-01-30T04:35:06;43.65;;;30.42;;
51578;SDS011;47998;53.242;6.386;2024-01-30T04:37:32;44.42;;;30.75;;
51578;SDS011;47998;53.242;6.386;2024-01-30T04:39:57;45.17;;;29.50;;
51578;SDS011;47998;53.242;6.386;2024-01-30T04:42:23;46.17;;;29.60;;
51578;SDS011;47998;53.242;6.386;2024-01-30T04:44:49;43.33;;;27.80;;
51578;SDS011;47998;53.242;6.386;2024-01-30T04:47:15;42.13;;;28.88;;
51578;SDS011;47998;53.242;6.386;2024-01-30T04:49:41;44.47;;;28.60;;
51578;SDS011;47998;53.242;6.386;2024-01-30T04:52:07;40.90;;;26.55;;
51578;SDS011;47998;53.242;6.386;2024-01-30T04:54:34;40.22;;;28.10;;
51578;SDS011;47998;53.242;6.386;2024-01-30T04:57:00;36.65;;;24.63;;
51578;SDS011;47998;53.242;6.386;2024-01-30T04:59:30;35.88;;;24.95;;
51578;SDS011;47998;53.242;6.386;2024-01-30T05:01:56;34.78;;;24.35;;
51578;SDS011;47998;53.242;6.386;2024-01-30T05:04:22;41.78;;;24.75;;
51578;SDS011;47998;53.242;6.386;2024-01-30T05:06:47;31.75;;;23.73;;
51578;SDS011;47998;53.242;6.386;2024-01-30T05:09:13;32.00;;;23.58;;
51578;SDS011;47998;53.242;6.386;2024-01-30T05:11:39;34.08;;;24.02;;
51578;SDS011;47998;53.242;6.386;2024-01-30T05:14:06;33.22;;;23.92;;
51578;SDS011;47998;53.242;6.386;2024-01-30T05:16:32;32.10;;;22.08;;
51578;SDS011;47998;53.242;6.386;2024-01-30T05:18:58;30.90;;;21.85;;
51578;SDS011;47998;53.242;6.386;2024-01-30T05:21:24;27.65;;;21.83;;
51578;SDS011;47998;53.242;6.386;2024-01-30T05:23:50;30.80;;;21.42;;
51578;SDS011;47998;53.242;6.386;2024-01-30T05:26:16;31.60;;;21.55;;
51578;SDS011;47998;53.242;6.386;2024-01-30T05:28:42;28.05;;;20.30;;
51578;SDS011;47998;53.242;6.386;2024-01-30T05:31:09;30.20;;;20.65;;
51578;SDS011;47998;53.242;6.386;2024-01-30T05:33:35;26.85;;;19.95;;
51578;SDS011;47998;53.242;6.386;2024-01-30T05:36:01;24.30;;;18.40;;
51578;SDS011;47998;53.242;6.386;2024-01-30T05:38:30;27.48;;;19.60;;
51578;SDS011;47998;53.242;6.386;2024-01-30T05:40:57;27.70;;;19.42;;
51578;SDS011;47998;53.242;6.386;2024-01-30T05:43:23;24.13;;;17.75;;
51578;SDS011;47998;53.242;6.386;2024-01-30T05:45:50;21.33;;;16.52;;
51578;SDS011;47998;53.242;6.386;2024-01-30T05:48:17;22.95;;;17.25;;
51578;SDS011;47998;53.242;6.386;2024-01-30T05:50:42;24.50;;;16.88;;
51578;SDS011;47998;53.242;6.386;2024-01-30T05:53:08;24.77;;;16.70;;
51578;SDS011;47998;53.242;6.386;2024-01-30T05:55:34;23.67;;;15.50;;
51578;SDS011;47998;53.242;6.386;2024-01-30T05:58:00;24.15;;;16.98;;
51578;SDS011;47998;53.242;6.386;2024-01-30T06:00:25;21.67;;;14.05;;
51578;SDS011;47998;53.242;6.386;2024-01-30T06:02:51;21.88;;;16.05;;
51578;SDS011;47998;53.242;6.386;2024-01-30T06:05:17;20.75;;;15.15;;
51578;SDS011;47998;53.242;6.386;2024-01-30T06:07:43;24.35;;;17.35;;
51578;SDS011;47998;53.242;6.386;2024-01-30T06:10:08;21.60;;;15.23;;
51578;SDS011;47998;53.242;6.386;2024-01-30T06:12:34;29.00;;;16.77;;
51578;SDS011;47998;53.242;6.386;2024-01-30T06:15:00;22.75;;;16.30;;
51578;SDS011;47998;53.242;6.386;2024-01-30T06:17:27;20.58;;;15.25;;
51578;SDS011;47998;53.242;6.386;2024-01-30T06:19:53;22.90;;;16.52;;
51578;SDS011;47998;53.242;6.386;2024-01-30T06:22:19;21.92;;;16.02;;
51578;SDS011;47998;53.242;6.386;2024-01-30T06:24:45;21.40;;;14.88;;
51578;SDS011;47998;53.242;6.386;2024-01-30T06:27:13;26.15;;;15.90;;
51578;SDS011;47998;53.242;6.386;2024-01-30T06:29:38;22.83;;;17.00;;
51578;SDS011;47998;53.242;6.386;2024-01-30T06:32:05;20.70;;;15.57;;
51578;SDS011;47998;53.242;6.386;2024-01-30T06:34:31;22.63;;;16.50;;
51578;SDS011;47998;53.242;6.386;2024-01-30T06:36:57;22.75;;;15.20;;
51578;SDS011;47998;53.242;6.386;2024-01-30T06:39:22;20.15;;;13.63;;
51578;SDS011;47998;53.242;6.386;2024-01-30T06:41:48;22.25;;;15.68;;
51578;SDS011;47998;53.242;6.386;2024-01-30T06:44:14;25.08;;;14.38;;
51578;SDS011;47998;53.242;6.386;2024-01-30T06:46:40;21.08;;;14.00;;
51578;SDS011;47998;53.242;6.386;2024-01-30T06:49:05;24.98;;;12.95;;
51578;SDS011;47998;53.242;6.386;2024-01-30T06:51:31;20.73;;;14.27;;
51578;SDS011;47998;53.242;6.386;2024-01-30T06:53:57;19.02;;;13.20;;
51578;SDS011;47998;53.242;6.386;2024-01-30T06:56:23;19.42;;;14.35;;
51578;SDS011;47998;53.242;6.386;2024-01-30T06:58:49;23.02;;;14.80;;
51578;SDS011;47998;53.242;6.386;2024-01-30T07:01:15;21.55;;;15.07;;
51578;SDS011;47998;53.242;6.386;2024-01-30T07:03:41;22.33;;;14.98;;
51578;SDS011;47998;53.242;6.386;2024-01-30T07:06:07;20.98;;;13.52;;
51578;SDS011;47998;53.242;6.386;2024-01-30T07:08:34;19.35;;;14.43;;
51578;SDS011;47998;53.242;6.386;2024-01-30T07:10:59;22.42;;;13.63;;
51578;SDS011;47998;53.242;6.386;2024-01-30T07:13:26;23.25;;;15.55;;
51578;SDS011;47998;53.242;6.386;2024-01-30T07:15:53;24.40;;;15.20;;
51578;SDS011;47998;53.242;6.386;2024-01-30T07:18:19;22.00;;;14.27;;
51578;SDS011;47998;53.242;6.386;2024-01-30T07:20:44;20.38;;;13.52;;
51578;SDS011;47998;53.242;6.386;2024-01-30T07:23:14;23.35;;;14.57;;
51578;SDS011;47998;53.242;6.386;2024-01-30T07:25:43;20.38;;;15.02;;
51578;SDS011;47998;53.242;6.386;2024-01-30T07:28:09;21.40;;;14.18;;
51578;SDS011;47998;53.242;6.386;2024-01-30T07:30:36;18.38;;;13.65;;
51578;SDS011;47998;53.242;6.386;2024-01-30T07:33:02;18.67;;;13.32;;
51578;SDS011;47998;53.242;6.386;2024-01-30T07:35:28;19.63;;;13.43;;
51578;SDS011;47998;53.242;6.386;2024-01-30T07:37:53;16.73;;;11.57;;
51578;SDS011;47998;53.242;6.386;2024-01-30T07:40:19;17.65;;;13.15;;
51578;SDS011;47998;53.242;6.386;2024-01-30T07:42:45;22.42;;;13.98;;
51578;SDS011;47998;53.242;6.386;2024-01-30T07:45:11;18.50;;;12.93;;
51578;SDS011;47998;53.242;6.386;2024-01-30T07:47:36;21.02;;;12.90;;
51578;SDS011;47998;53.242;6.386;2024-01-30T07:50:02;18.65;;;12.68;;
51578;SDS011;47998;53.242;6.386;2024-01-30T07:52:28;20.10;;;13.57;;
51578;SDS011;47998;53.242;6.386;2024-01-30T07:54:54;16.30;;;12.63;;
51578;SDS011;47998;53.242;6.386;2024-01-30T07:57:20;17.25;;;13.05;;
51578;SDS011;47998;53.242;6.386;2024-01-30T07:59:46;18.65;;;13.80;;
51578;SDS011;47998;53.242;6.386;2024-01-30T08:02:12;18.50;;;12.85;;
51578;SDS011;47998;53.242;6.386;2024-01-30T08:04:38;19.42;;;13.20;;
51578;SDS011;47998;53.242;6.386;2024-01-30T08:07:04;21.00;;;12.77;;
51578;SDS011;47998;53.242;6.386;2024-01-30T08:09:30;21.35;;;12.25;;
51578;SDS011;47998;53.242;6.386;2024-01-30T08:11:55;17.13;;;13.40;;
51578;SDS011;47998;53.242;6.386;2024-01-30T08:14:21;26.23;;;13.20;;
51578;SDS011;47998;53.242;6.386;2024-01-30T08:16:47;15.55;;;10.43;;
51578;SDS011;47998;53.242;6.386;2024-01-30T08:19:13;18.17;;;12.55;;
51578;SDS011;47998;53.242;6.386;2024-01-30T08:21:40;18.08;;;12.05;;
51578;SDS011;47998;53.242;6.386;2024-01-30T08:24:06;19.45;;;11.90;;
51578;SDS011;47998;53.242;6.386;2024-01-30T08:26:32;20.17;;;12.27;;
51578;SDS011;47998;53.242;6.386;2024-01-30T08:28:59;16.90;;;11.43;;
51578;SDS011;47998;53.242;6.386;2024-01-30T08:31:25;18.17;;;11.57;;
51578;SDS011;47998;53.242;6.386;2024-01-30T08:33:50;17.67;;;11.88;;
51578;SDS011;47998;53.242;6.386;2024-01-30T08:36:16;18.55;;;13.40;;
51578;SDS011;47998;53.242;6.386;2024-01-30T08:38:42;17.52;;;12.70;;
51578;SDS011;47998;53.242;6.386;2024-01-30T08:41:08;17.77;;;12.60;;
51578;SDS011;47998;53.242;6.386;2024-01-30T08:43:34;20.05;;;12.40;;
51578;SDS011;47998;53.242;6.386;2024-01-30T08:46:01;22.00;;;12.52;;
51578;SDS011;47998;53.242;6.386;2024-01-30T08:48:27;21.75;;;12.60;;
51578;SDS011;47998;53.242;6.386;2024-01-30T08:50:53;17.60;;;12.30;;
51578;SDS011;47998;53.242;6.386;2024-01-30T08:53:19;17.55;;;12.15;;
51578;SDS011;47998;53.242;6.386;2024-01-30T08:55:45;19.27;;;11.45;;
51578;SDS011;47998;53.242;6.386;2024-01-30T08:58:11;19.15;;;10.68;;
51578;SDS011;47998;53.242;6.386;2024-01-30T09:00:36;21.35;;;12.40;;
51578;SDS011;47998;53.242;6.386;2024-01-30T09:03:05;20.42;;;11.80;;
51578;SDS011;47998;53.242;6.386;2024-01-30T09:05:31;17.10;;;12.30;;
51578;SDS011;47998;53.242;6.386;2024-01-30T09:07:56;19.42;;;13.25;;
51578;SDS011;47998;53.242;6.386;2024-01-30T09:10:22;17.40;;;11.40;;
51578;SDS011;47998;53.242;6.386;2024-01-30T09:12:48;18.75;;;12.15;;
51578;SDS011;47998;53.242;6.386;2024-01-30T09:15:14;15.63;;;11.73;;
51578;SDS011;47998;53.242;6.386;2024-01-30T09:17:40;20.80;;;11.27;;
51578;SDS011;47998;53.242;6.386;2024-01-30T09:20:06;18.48;;;12.68;;
51578;SDS011;47998;53.242;6.386;2024-01-30T09:22:33;15.73;;;11.98;;
51578;SDS011;47998;53.242;6.386;2024-01-30T09:24:59;19.77;;;11.20;;
51578;SDS011;47998;53.242;6.386;2024-01-30T09:27:24;15.20;;;10.88;;
51578;SDS011;47998;53.242;6.386;2024-01-30T09:29:50;19.40;;;11.88;;
51578;SDS011;47998;53.242;6.386;2024-01-30T09:32:16;14.65;;;11.68;;
51578;SDS011;47998;53.242;6.386;2024-01-30T09:34:42;20.60;;;11.60;;
51578;SDS011;47998;53.242;6.386;2024-01-30T09:37:08;14.63;;;10.95;;
51578;SDS011;47998;53.242;6.386;2024-01-30T09:39:34;16.98;;;11.18;;
51578;SDS011;47998;53.242;6.386;2024-01-30T09:44:55;14.88;;;10.98;;
51578;SDS011;47998;53.242;6.386;2024-01-30T09:47:21;14.98;;;11.05;;
51578;SDS011;47998;53.242;6.386;2024-01-30T09:49:47;17.02;;;10.57;;
51578;SDS011;47998;53.242;6.386;2024-01-30T09:52:13;19.10;;;11.80;;
51578;SDS011;47998;53.242;6.386;2024-01-30T09:54:40;16.95;;;10.73;;
51578;SDS011;47998;53.242;6.386;2024-01-30T09:57:07;18.33;;;11.52;;
51578;SDS011;47998;53.242;6.386;2024-01-30T09:59:33;18.83;;;11.63;;
51578;SDS011;47998;53.242;6.386;2024-01-30T10:02:00;19.88;;;11.75;;
51578;SDS011;47998;53.242;6.386;2024-01-30T10:04:26;18.05;;;11.73;;
51578;SDS011;47998;53.242;6.386;2024-01-30T10:06:51;17.13;;;11.23;;
51578;SDS011;47998;53.242;6.386;2024-01-30T10:09:17;16.27;;;11.38;;
51578;SDS011;47998;53.242;6.386;2024-01-30T10:11:42;19.27;;;12.48;;
51578;SDS011;47998;53.242;6.386;2024-01-30T10:14:09;19.58;;;11.85;;
51578;SDS011;47998;53.242;6.386;2024-01-30T10:16:35;16.67;;;11.10;;
51578;SDS011;47998;53.242;6.386;2024-01-30T10:19:00;22.40;;;12.45;;
51578;SDS011;47998;53.242;6.386;2024-01-30T10:21:26;20.17;;;11.77;;
51578;SDS011;47998;53.242;6.386;2024-01-30T10:23:52;16.77;;;11.90;;
51578;SDS011;47998;53.242;6.386;2024-01-30T10:26:18;18.70;;;11.52;;
51578;SDS011;47998;53.242;6.386;2024-01-30T10:28:44;19.05;;;11.80;;
51578;SDS011;47998;53.242;6.386;2024-01-30T10:31:09;19.02;;;11.35;;
51578;SDS011;47998;53.242;6.386;2024-01-30T10:33:35;19.58;;;11.10;;
51578;SDS011;47998;53.242;6.386;2024-01-30T10:36:01;18.23;;;11.60;;
51578;SDS011;47998;53.242;6.386;2024-01-30T10:38:29;19.85;;;11.57;;
51578;SDS011;47998;53.242;6.386;2024-01-30T10:40:59;21.45;;;11.23;;
51578;SDS011;47998;53.242;6.386;2024-01-30T10:43:32;16.90;;;11.23;;
51578;SDS011;47998;53.242;6.386;2024-01-30T10:46:18;16.15;;;9.52;;
51578;SDS011;47998;53.242;6.386;2024-01-30T10:48:46;15.98;;;9.00;;
51578;SDS011;47998;53.242;6.386;2024-01-30T10:51:16;13.38;;;8.55;;
51578;SDS011;47998;53.242;6.386;2024-01-30T10:53:43;15.80;;;9.35;;
51578;SDS011;47998;53.242;6.386;2024-01-30T10:56:12;16.83;;;7.10;;
51578;SDS011;47998;53.242;6.386;2024-01-30T10:58:40;13.00;;;7.63;;
51578;SDS011;47998;53.242;6.386;2024-01-30T11:01:06;16.90;;;6.20;;
51578;SDS011;47998;53.242;6.386;2024-01-30T11:03:33;14.90;;;8.05;;
51578;SDS011;47998;53.242;6.386;2024-01-30T11:06:01;13.40;;;7.60;;
51578;SDS011;47998;53.242;6.386;2024-01-30T11:08:27;13.23;;;7.35;;
51578;SDS011;47998;53.242;6.386;2024-01-30T11:10:57;11.90;;;6.10;;
51578;SDS011;47998;53.242;6.386;2024-01-30T11:13:29;12.73;;;6.60;;
51578;SDS011;47998;53.242;6.386;2024-01-30T11:16:02;23.23;;;7.25;;
51578;SDS011;47998;53.242;6.386;2024-01-30T11:18:30;14.20;;;6.25;;
51578;SDS011;47998;53.242;6.386;2024-01-30T11:20:57;18.63;;;7.40;;
51578;SDS011;47998;53.242;6.386;2024-01-30T11:23:23;13.10;;;5.82;;
51578;SDS011;47998;53.242;6.386;2024-01-30T11:25:52;14.57;;;5.60;;
51578;SDS011;47998;53.242;6.386;2024-01-30T11:28:18;12.65;;;5.30;;
51578;SDS011;47998;53.242;6.386;2024-01-30T11:30:45;16.50;;;4.63;;
51578;SDS011;47998;53.242;6.386;2024-01-30T11:33:13;6.72;;;3.13;;
51578;SDS011;47998;53.242;6.386;2024-01-30T11:35:40;10.48;;;4.45;;
51578;SDS011;47998;53.242;6.386;2024-01-30T11:38:08;11.40;;;4.45;;
51578;SDS011;47998;53.242;6.386;2024-01-30T11:40:35;13.82;;;4.55;;
51578;SDS011;47998;53.242;6.386;2024-01-30T11:43:03;11.25;;;3.90;;
51578;SDS011;47998;53.242;6.386;2024-01-30T11:45:30;9.05;;;3.47;;
51578;SDS011;47998;53.242;6.386;2024-01-30T11:47:56;9.23;;;3.25;;
51578;SDS011;47998;53.242;6.386;2024-01-30T11:50:25;11.05;;;3.55;;
51578;SDS011;47998;53.242;6.386;2024-01-30T11:52:51;11.35;;;2.33;;
51578;SDS011;47998;53.242;6.386;2024-01-30T11:55:17;5.75;;;2.08;;
51578;SDS011;47998;53.242;6.386;2024-01-30T11:57:44;7.13;;;2.85;;
51578;SDS011;47998;53.242;6.386;2024-01-30T12:00:16;8.30;;;1.92;;
51578;SDS011;47998;53.242;6.386;2024-01-30T12:02:49;6.28;;;1.40;;
51578;SDS011;47998;53.242;6.386;2024-01-30T12:05:27;5.43;;;1.67;;
51578;SDS011;47998;53.242;6.386;2024-01-30T12:07:53;4.28;;;1.55;;
51578;SDS011;47998;53.242;6.386;2024-01-30T12:10:19;5.60;;;1.52;;
51578;SDS011;47998;53.242;6.386;2024-01-30T12:12:46;5.55;;;1.40;;
51578;SDS011;47998;53.242;6.386;2024-01-30T12:15:15;6.13;;;1.45;;
51578;SDS011;47998;53.242;6.386;2024-01-30T12:17:43;10.18;;;1.70;;
51578;SDS011;47998;53.242;6.386;2024-01-30T12:20:10;5.68;;;1.27;;
51578;SDS011;47998;53.242;6.386;2024-01-30T12:22:37;4.60;;;1.65;;
51578;SDS011;47998;53.242;6.386;2024-01-30T12:25:08;7.28;;;1.83;;
51578;SDS011;47998;53.242;6.386;2024-01-30T12:27:38;3.40;;;1.17;;
51578;SDS011;47998;53.242;6.386;2024-01-30T12:30:07;5.78;;;0.93;;
51578;SDS011;47998;53.242;6.386;2024-01-30T12:32:37;4.57;;;1.42;;
51578;SDS011;47998;53.242;6.386;2024-01-30T12:35:23;5.28;;;0.68;;
51578;SDS011;47998;53.242;6.386;2024-01-30T12:37:48;11.63;;;1.35;;
51578;SDS011;47998;53.242;6.386;2024-01-30T12:40:15;4.53;;;0.88;;
51578;SDS011;47998;53.242;6.386;2024-01-30T12:42:42;5.68;;;1.35;;
51578;SDS011;47998;53.242;6.386;2024-01-30T12:45:11;6.75;;;0.50;;
51578;SDS011;47998;53.242;6.386;2024-01-30T12:47:37;4.13;;;0.90;;
51578;SDS011;47998;53.242;6.386;2024-01-30T12:50:03;1.70;;;0.60;;
51578;SDS011;47998;53.242;6.386;2024-01-30T12:52:29;3.55;;;0.70;;
51578;SDS011;47998;53.242;6.386;2024-01-30T12:54:54;5.07;;;0.93;;
51578;SDS011;47998;53.242;6.386;2024-01-30T12:57:21;5.85;;;0.80;;
51578;SDS011;47998;53.242;6.386;2024-01-30T12:59:47;3.78;;;0.80;;
51578;SDS011;47998;53.242;6.386;2024-01-30T13:02:13;2.38;;;0.57;;
51578;SDS011;47998;53.242;6.386;2024-01-30T13:04:39;4.20;;;0.50;;
51578;SDS011;47998;53.242;6.386;2024-01-30T13:07:06;2.05;;;0.52;;
51578;SDS011;47998;53.242;6.386;2024-01-30T13:09:31;2.90;;;0.80;;
51578;SDS011;47998;53.242;6.386;2024-01-30T13:11:58;2.00;;;0.60;;
51578;SDS011;47998;53.242;6.386;2024-01-30T13:14:25;4.40;;;0.73;;
51578;SDS011;47998;53.242;6.386;2024-01-30T13:16:51;3.28;;;0.70;;
51578;SDS011;47998;53.242;6.386;2024-01-30T13:19:17;2.88;;;0.90;;
51578;SDS011;47998;53.242;6.386;2024-01-30T13:21:43;3.17;;;0.68;;
51578;SDS011;47998;53.242;6.386;2024-01-30T13:24:08;0.95;;;0.38;;
51578;SDS011;47998;53.242;6.386;2024-01-30T13:26:34;2.47;;;0.70;;
51578;SDS011;47998;53.242;6.386;2024-01-30T13:29:00;3.58;;;0.55;;
51578;SDS011;47998;53.242;6.386;2024-01-30T13:31:26;2.30;;;0.60;;
51578;SDS011;47998;53.242;6.386;2024-01-30T13:33:52;2.63;;;0.77;;
51578;SDS011;47998;53.242;6.386;2024-01-30T13:36:19;3.28;;;1.02;;
51578;SDS011;47998;53.242;6.386;2024-01-30T13:38:44;4.57;;;1.00;;
51578;SDS011;47998;53.242;6.386;2024-01-30T13:41:10;4.95;;;1.05;;
51578;SDS011;47998;53.242;6.386;2024-01-30T13:43:36;5.30;;;0.77;;
51578;SDS011;47998;53.242;6.386;2024-01-30T13:46:02;5.20;;;1.35;;
51578;SDS011;47998;53.242;6.386;2024-01-30T13:48:28;7.03;;;1.95;;
51578;SDS011;47998;53.242;6.386;2024-01-30T13:50:54;2.40;;;1.17;;
51578;SDS011;47998;53.242;6.386;2024-01-30T13:53:20;5.90;;;1.98;;
51578;SDS011;47998;53.242;6.386;2024-01-30T13:55:46;5.95;;;1.40;;
51578;SDS011;47998;53.242;6.386;2024-01-30T13:58:12;3.90;;;1.52;;
51578;SDS011;47998;53.242;6.386;2024-01-30T14:00:38;9.32;;;1.65;;
51578;SDS011;47998;53.242;6.386;2024-01-30T14:03:03;8.35;;;2.45;;
51578;SDS011;47998;53.242;6.386;2024-01-30T14:05:30;4.90;;;1.23;;
51578;SDS011;47998;53.242;6.386;2024-01-30T14:07:56;6.53;;;1.10;;
51578;SDS011;47998;53.242;6.386;2024-01-30T14:10:22;1.80;;;0.85;;
51578;SDS011;47998;53.242;6.386;2024-01-30T14:12:48;1.52;;;0.60;;
51578;SDS011;47998;53.242;6.386;2024-01-30T14:15:14;2.75;;;1.00;;
51578;SDS011;47998;53.242;6.386;2024-01-30T14:17:42;4.20;;;0.75;;
51578;SDS011;47998;53.242;6.386;2024-01-30T14:20:08;3.40;;;1.10;;
51578;SDS011;47998;53.242;6.386;2024-01-30T14:22:35;3.25;;;0.70;;
51578;SDS011;47998;53.242;6.386;2024-01-30T14:25:01;1.70;;;0.82;;
51578;SDS011;47998;53.242;6.386;2024-01-30T14:27:29;2.97;;;0.98;;